MSC Poh Lin — H8FC — position and weather

sailwx.info

Track history (hours):
 
Tides and Currents Weather Stations Pressure Air Temp Water Temp Dewpoint Dewpoint Depression Visibility Wind Speed Wind Dir Waves Ship Positions

MSC Poh Lin

Last reported at 2017-Feb-22 02:33 UTC. Time now 2017-Feb-23 18:44 UTC.
Position N 39°40' E 024°02'.

Length 294 m; draft 10.1 m.

Type: Ship (hazmat cat A). MMSI: 357405000.

Date/timePositionNaut miles runAvg speedWind from/ knotsBaromVisibWave heightAir tempDewpointWater temp
2017-Feb-22 02:33N 39°40' E 024°02'12410.4
2017-Feb-21 14:34N 37°36' E 023°46'1514.6
2017-Feb-21 13:34N 37°49' E 023°37'8 8.1
2017-Feb-21 12:32N 37°57' E 023°36'0 0.0
2017-Feb-21 11:32N 37°57' E 023°36'0 0.0
2017-Feb-21 10:32N 37°57' E 023°36'0 0.0
2017-Feb-21 09:32N 37°57' E 023°36'0 0.0
2017-Feb-21 08:29N 37°57' E 023°36'0 0.0
2017-Feb-21 07:32N 37°57' E 023°36'0 0.0
2017-Feb-21 06:32N 37°57' E 023°36'0 0.0
2017-Feb-21 05:32N 37°57' E 023°36'0 0.0
2017-Feb-21 04:32N 37°57' E 023°36'0 0.0
2017-Feb-21 03:32N 37°57' E 023°36'0 0.0
2017-Feb-21 02:32N 37°57' E 023°36'0 0.0
2017-Feb-21 01:32N 37°57' E 023°36'0 0.0
2017-Feb-21 00:32N 37°57' E 023°36'0 0.0
2017-Feb-20 23:32N 37°57' E 023°36'0 0.0
2017-Feb-20 22:32N 37°57' E 023°36'0 0.0
2017-Feb-20 21:32N 37°57' E 023°36'0 0.0
2017-Feb-20 20:32N 37°57' E 023°36'0 0.0
2017-Feb-20 19:32N 37°57' E 023°36'3 3.2
2017-Feb-20 18:33N 37°54' E 023°37'1313.5
2017-Feb-20 17:34N 37°42' E 023°44'3818.6
2017-Feb-20 15:30N 37°04' E 023°40'38215.9
2017-Feb-19 15:33N 37°52' E 015°43'1414.1
2017-Feb-19 14:33N 38°04' E 015°33'1616.2
2017-Feb-19 13:33N 38°19' E 015°41'1212.2
2017-Feb-19 12:32N 38°27' E 015°54'1 0.2
2017-Feb-19 09:18N 38°27' E 015°54'0 0.0
2017-Feb-19 08:30N 38°27' E 015°54'0 0.0
2017-Feb-19 07:33N 38°27' E 015°54'0 0.0
2017-Feb-19 06:31N 38°27' E 015°54'0 0.0
2017-Feb-19 05:31N 38°27' E 015°54'0 0.0
2017-Feb-19 04:25N 38°27' E 015°54'0 0.0
2017-Feb-19 03:31N 38°27' E 015°54'0 0.0
2017-Feb-19 02:28N 38°27' E 015°54'0 0.0
2017-Feb-19 01:25N 38°27' E 015°54'0 0.0
2017-Feb-18 23:16N 38°27' E 015°54'0 0.0
2017-Feb-18 22:28N 38°27' E 015°54'0 0.0
2017-Feb-18 21:28N 38°27' E 015°54'0 0.0
2017-Feb-18 20:25N 38°27' E 015°54'0 0.0
2017-Feb-18 19:31N 38°27' E 015°54'0 0.0
2017-Feb-18 18:31N 38°27' E 015°54'0 0.0
2017-Feb-18 16:25N 38°27' E 015°54'0 0.4
2017-Feb-18 15:33N 38°27' E 015°54'3 3.3
2017-Feb-18 14:33N 38°26' E 015°50'1111.3
2017-Feb-18 13:33N 38°25' E 015°36'1211.7
2017-Feb-18 12:34N 38°22' E 015°21'1615.5
2017-Feb-18 11:34N 38°20' E 015°02'1615.8
2017-Feb-18 10:33N 38°21' E 014°42'1616.2
2017-Feb-18 09:33N 38°22' E 014°21'1815.8
2017-Feb-18 08:23N 38°23' E 013°57'1518.5
2017-Feb-18 07:33N 38°25' E 013°38'1918.8
2017-Feb-18 06:33N 38°26' E 013°14'1918.7
2017-Feb-18 05:33N 38°23' E 012°50'87319.0
2017-Feb-16 07:30N 35°60' W 005°11'2119.1
2017-Feb-16 06:25N 35°55' W 005°36'1719.4
2017-Feb-16 05:33N 35°53' W 005°57'21716.3
2017-Feb-15 16:15N 37°47' W 009°48'1420.7
2017-Feb-15 15:33N 38°01' W 009°52'2121.0
2017-Feb-15 14:33N 38°21' W 010°00'2120.8
2017-Feb-15 13:33N 38°41' W 010°06'2120.7
2017-Feb-15 12:33N 39°02' W 010°06'2121.0
2017-Feb-15 11:33N 39°23' W 010°07'2120.9
2017-Feb-15 10:33N 39°44' W 010°06'58019.9
2017-Feb-14 05:25N 48°53' W 005°45'9519.6
2017-Feb-14 00:33N 49°43' W 003°40'2120.8
2017-Feb-13 23:34N 49°53' W 003°12'1919.1
2017-Feb-13 22:34N 50°00' W 002°44'2017.3
2017-Feb-13 21:25N 50°06' W 002°15'7318.9
2017-Feb-13 17:33N 50°23' W 000°24'2121.3
2017-Feb-13 16:33N 50°30' E 000°08'2120.7
2017-Feb-13 15:33N 50°37' E 000°39'2019.2
2017-Feb-13 14:32N 50°47' E 001°06'1717.0
2017-Feb-13 13:33N 50°59' E 001°24'1616.3
2017-Feb-13 12:34N 51°10' E 001°42'1817.5
2017-Feb-13 11:33N 51°24' E 001°59'1817.7
2017-Feb-13 10:33N 51°22' E 002°27'1615.8
2017-Feb-13 09:34N 51°22' E 002°52'1616.2
2017-Feb-13 08:34N 51°25' E 003°18'1414.3
2017-Feb-13 07:33N 51°26' E 003°41'1110.8
2017-Feb-13 06:33N 51°26' E 003°58'1111.1
2017-Feb-13 05:33N 51°21' E 004°14'3 3.1
2017-Feb-13 04:28N 51°18' E 004°16'0 0.0
2017-Feb-13 03:25N 51°18' E 004°16'0 0.0
2017-Feb-13 02:31N 51°18' E 004°16'0 0.0
2017-Feb-13 01:31N 51°18' E 004°16'0 0.0
2017-Feb-13 00:31N 51°18' E 004°16'0 0.0
2017-Feb-12 23:31N 51°18' E 004°16'0 0.0
2017-Feb-12 22:31N 51°18' E 004°16'0 0.0
2017-Feb-12 21:31N 51°18' E 004°16'0 0.0
2017-Feb-12 20:31N 51°18' E 004°16'0 0.0
2017-Feb-12 19:28N 51°18' E 004°16'0 0.0
2017-Feb-12 18:28N 51°18' E 004°16'0 0.0
2017-Feb-12 17:31N 51°18' E 004°16'0 0.0
2017-Feb-12 16:31N 51°18' E 004°16'0 0.0
2017-Feb-12 15:31N 51°18' E 004°16'0 0.0
2017-Feb-12 14:31N 51°18' E 004°16'0 0.0
2017-Feb-12 13:31N 51°18' E 004°16'0 0.0
2017-Feb-12 12:31N 51°18' E 004°16'0 0.0
2017-Feb-12 11:31N 51°18' E 004°16'0 0.0
2017-Feb-12 10:25N 51°18' E 004°16'0 0.0
2017-Feb-12 09:31N 51°18' E 004°16'0 0.0
2017-Feb-12 08:31N 51°18' E 004°16'0 0.0
2017-Feb-12 07:31N 51°18' E 004°16'0 0.0
2017-Feb-12 06:31N 51°18' E 004°16'0 0.0
2017-Feb-12 05:31N 51°18' E 004°16'0 0.0
2017-Feb-12 04:31N 51°18' E 004°16'0 0.0
2017-Feb-12 03:28N 51°18' E 004°16'  
Track history (hours):
 
Tides and Currents Weather Stations Pressure Air Temp Water Temp Dewpoint Dewpoint Depression Visibility Wind Speed Wind Dir Waves Ship Positions

MSC Poh Lin

Last reported at 2017-Feb-22 02:33 UTC. Time now 2017-Feb-23 18:44 UTC.
Position N 39°40' E 024°02'.

Length 294 m; draft 10.1 m.

Type: Ship (hazmat cat A). MMSI: 357405000.

Date/timePositionNaut miles runAvg speedWind from/ knotsBaromVisibWave heightAir tempDewpointWater temp
2017-Feb-22 02:33N 39°40' E 024°02'12410.4
2017-Feb-21 14:34N 37°36' E 023°46'1514.6
2017-Feb-21 13:34N 37°49' E 023°37'8 8.1
2017-Feb-21 12:32N 37°57' E 023°36'0 0.0
2017-Feb-21 11:32N 37°57' E 023°36'0 0.0
2017-Feb-21 10:32N 37°57' E 023°36'0 0.0
2017-Feb-21 09:32N 37°57' E 023°36'0 0.0
2017-Feb-21 08:29N 37°57' E 023°36'0 0.0
2017-Feb-21 07:32N 37°57' E 023°36'0 0.0
2017-Feb-21 06:32N 37°57' E 023°36'0 0.0
2017-Feb-21 05:32N 37°57' E 023°36'0 0.0
2017-Feb-21 04:32N 37°57' E 023°36'0 0.0
2017-Feb-21 03:32N 37°57' E 023°36'0 0.0
2017-Feb-21 02:32N 37°57' E 023°36'0 0.0
2017-Feb-21 01:32N 37°57' E 023°36'0 0.0
2017-Feb-21 00:32N 37°57' E 023°36'0 0.0
2017-Feb-20 23:32N 37°57' E 023°36'0 0.0
2017-Feb-20 22:32N 37°57' E 023°36'0 0.0
2017-Feb-20 21:32N 37°57' E 023°36'0 0.0
2017-Feb-20 20:32N 37°57' E 023°36'0 0.0
2017-Feb-20 19:32N 37°57' E 023°36'3 3.2
2017-Feb-20 18:33N 37°54' E 023°37'1313.5
2017-Feb-20 17:34N 37°42' E 023°44'3818.6
2017-Feb-20 15:30N 37°04' E 023°40'38215.9
2017-Feb-19 15:33N 37°52' E 015°43'1414.1
2017-Feb-19 14:33N 38°04' E 015°33'1616.2
2017-Feb-19 13:33N 38°19' E 015°41'1212.2
2017-Feb-19 12:32N 38°27' E 015°54'1 0.2
2017-Feb-19 09:18N 38°27' E 015°54'0 0.0
2017-Feb-19 08:30N 38°27' E 015°54'0 0.0
2017-Feb-19 07:33N 38°27' E 015°54'0 0.0
2017-Feb-19 06:31N 38°27' E 015°54'0 0.0
2017-Feb-19 05:31N 38°27' E 015°54'0 0.0
2017-Feb-19 04:25N 38°27' E 015°54'0 0.0
2017-Feb-19 03:31N 38°27' E 015°54'0 0.0
2017-Feb-19 02:28N 38°27' E 015°54'0 0.0
2017-Feb-19 01:25N 38°27' E 015°54'0 0.0
2017-Feb-18 23:16N 38°27' E 015°54'0 0.0
2017-Feb-18 22:28N 38°27' E 015°54'0 0.0
2017-Feb-18 21:28N 38°27' E 015°54'0 0.0
2017-Feb-18 20:25N 38°27' E 015°54'0 0.0
2017-Feb-18 19:31N 38°27' E 015°54'0 0.0
2017-Feb-18 18:31N 38°27' E 015°54'0 0.0
2017-Feb-18 16:25N 38°27' E 015°54'0 0.4
2017-Feb-18 15:33N 38°27' E 015°54'3 3.3
2017-Feb-18 14:33N 38°26' E 015°50'1111.3
2017-Feb-18 13:33N 38°25' E 015°36'1211.7
2017-Feb-18 12:34N 38°22' E 015°21'1615.5
2017-Feb-18 11:34N 38°20' E 015°02'1615.8
2017-Feb-18 10:33N 38°21' E 014°42'1616.2
2017-Feb-18 09:33N 38°22' E 014°21'1815.8
2017-Feb-18 08:23N 38°23' E 013°57'1518.5
2017-Feb-18 07:33N 38°25' E 013°38'1918.8
2017-Feb-18 06:33N 38°26' E 013°14'1918.7
2017-Feb-18 05:33N 38°23' E 012°50'87319.0
2017-Feb-16 07:30N 35°60' W 005°11'2119.1
2017-Feb-16 06:25N 35°55' W 005°36'1719.4
2017-Feb-16 05:33N 35°53' W 005°57'21716.3
2017-Feb-15 16:15N 37°47' W 009°48'1420.7
2017-Feb-15 15:33N 38°01' W 009°52'2121.0
2017-Feb-15 14:33N 38°21' W 010°00'2120.8
2017-Feb-15 13:33N 38°41' W 010°06'2120.7
2017-Feb-15 12:33N 39°02' W 010°06'2121.0
2017-Feb-15 11:33N 39°23' W 010°07'2120.9
2017-Feb-15 10:33N 39°44' W 010°06'58019.9
2017-Feb-14 05:25N 48°53' W 005°45'9519.6
2017-Feb-14 00:33N 49°43' W 003°40'2120.8
2017-Feb-13 23:34N 49°53' W 003°12'1919.1
2017-Feb-13 22:34N 50°00' W 002°44'2017.3
2017-Feb-13 21:25N 50°06' W 002°15'7318.9
2017-Feb-13 17:33N 50°23' W 000°24'2121.3
2017-Feb-13 16:33N 50°30' E 000°08'2120.7
2017-Feb-13 15:33N 50°37' E 000°39'2019.2
2017-Feb-13 14:32N 50°47' E 001°06'1717.0
2017-Feb-13 13:33N 50°59' E 001°24'1616.3
2017-Feb-13 12:34N 51°10' E 001°42'1817.5
2017-Feb-13 11:33N 51°24' E 001°59'1817.7
2017-Feb-13 10:33N 51°22' E 002°27'1615.8
2017-Feb-13 09:34N 51°22' E 002°52'1616.2
2017-Feb-13 08:34N 51°25' E 003°18'1414.3
2017-Feb-13 07:33N 51°26' E 003°41'1110.8
2017-Feb-13 06:33N 51°26' E 003°58'1111.1
2017-Feb-13 05:33N 51°21' E 004°14'3 3.1
2017-Feb-13 04:28N 51°18' E 004°16'0 0.0
2017-Feb-13 03:25N 51°18' E 004°16'0 0.0
2017-Feb-13 02:31N 51°18' E 004°16'0 0.0
2017-Feb-13 01:31N 51°18' E 004°16'0 0.0
2017-Feb-13 00:31N 51°18' E 004°16'0 0.0
2017-Feb-12 23:31N 51°18' E 004°16'0 0.0
2017-Feb-12 22:31N 51°18' E 004°16'0 0.0
2017-Feb-12 21:31N 51°18' E 004°16'0 0.0
2017-Feb-12 20:31N 51°18' E 004°16'0 0.0
2017-Feb-12 19:28N 51°18' E 004°16'0 0.0
2017-Feb-12 18:28N 51°18' E 004°16'0 0.0
2017-Feb-12 17:31N 51°18' E 004°16'0 0.0
2017-Feb-12 16:31N 51°18' E 004°16'0 0.0
2017-Feb-12 15:31N 51°18' E 004°16'0 0.0
2017-Feb-12 14:31N 51°18' E 004°16'0 0.0
2017-Feb-12 13:31N 51°18' E 004°16'0 0.0
2017-Feb-12 12:31N 51°18' E 004°16'0 0.0
2017-Feb-12 11:31N 51°18' E 004°16'0 0.0
2017-Feb-12 10:25N 51°18' E 004°16'0 0.0
2017-Feb-12 09:31N 51°18' E 004°16'0 0.0
2017-Feb-12 08:31N 51°18' E 004°16'0 0.0
2017-Feb-12 07:31N 51°18' E 004°16'0 0.0
2017-Feb-12 06:31N 51°18' E 004°16'0 0.0
2017-Feb-12 05:31N 51°18' E 004°16'0 0.0
2017-Feb-12 04:31N 51°18' E 004°16'0 0.0
2017-Feb-12 03:28N 51°18' E 004°16'  

Dump ship's entire track history